createdAt,value
2023-04-27T00:00:28.614Z,0
2023-04-27T00:00:58.620Z,0
2023-04-27T00:01:28.637Z,0
2023-04-27T00:01:58.683Z,0
2023-04-27T00:02:28.765Z,0
2023-04-27T00:02:58.795Z,0
2023-04-27T00:03:28.757Z,0
2023-04-27T00:03:58.946Z,0
2023-04-27T00:04:28.869Z,0
2023-04-27T00:04:58.849Z,0
2023-04-27T00:05:28.722Z,0
2023-04-27T00:05:58.760Z,0
2023-04-27T00:06:28.697Z,0
2023-04-27T00:06:58.709Z,0
2023-04-27T00:07:28.714Z,0
2023-04-27T00:07:58.718Z,0
2023-04-27T00:08:28.735Z,0
2023-04-27T00:08:58.745Z,0
2023-04-27T00:09:28.732Z,0
2023-04-27T00:09:58.751Z,0
2023-04-27T00:10:28.754Z,0
2023-04-27T00:10:58.773Z,0
2023-04-27T00:11:28.759Z,0
2023-04-27T00:11:58.766Z,0
2023-04-27T00:12:28.783Z,0
2023-04-27T00:12:58.781Z,0
2023-04-27T00:13:28.794Z,0
2023-04-27T00:13:58.790Z,0
2023-04-27T00:14:28.829Z,0
2023-04-27T00:14:58.811Z,0
2023-04-27T00:15:28.813Z,0
2023-04-27T00:15:58.857Z,0
2023-04-27T00:16:28.864Z,0
2023-04-27T00:16:58.836Z,0
2023-04-27T00:17:28.896Z,0
2023-04-27T00:17:58.909Z,0
2023-04-27T00:18:28.855Z,0
2023-04-27T00:18:58.868Z,0
2023-04-27T00:19:28.871Z,0
2023-04-27T00:19:58.891Z,0
2023-04-27T00:20:28.878Z,0
2023-04-27T00:20:58.901Z,0
2023-04-27T00:21:28.891Z,0
2023-04-27T00:21:58.916Z,0
2023-04-27T00:22:28.914Z,0
2023-04-27T00:22:58.922Z,0
2023-04-27T00:23:28.918Z,0
2023-04-27T00:23:58.945Z,0
2023-04-27T00:24:28.980Z,0
2023-04-27T00:24:58.942Z,0
2023-04-27T00:25:28.946Z,0
2023-04-27T00:25:58.954Z,0
2023-04-27T00:26:28.965Z,0
2023-04-27T00:26:58.961Z,0
2023-04-27T00:27:28.972Z,0
2023-04-27T00:27:59.019Z,0
2023-04-27T00:28:28.985Z,0
2023-04-27T00:28:58.992Z,0
2023-04-27T00:29:29.003Z,0
2023-04-27T00:29:59.010Z,0
2023-04-27T00:30:29.016Z,0
2023-04-27T00:30:59.025Z,0
2023-04-27T00:31:29.059Z,0
2023-04-27T00:31:59.067Z,0
2023-04-27T00:32:29.071Z,0
2023-04-27T00:32:59.057Z,0
2023-04-27T00:33:29.042Z,0
2023-04-27T00:33:59.062Z,0
2023-04-27T00:34:29.061Z,0
2023-04-27T00:34:59.077Z,0
2023-04-27T00:35:29.079Z,0
2023-04-27T00:35:59.095Z,0
2023-04-27T00:36:29.101Z,0
2023-04-27T00:36:59.099Z,0
2023-04-27T00:37:29.107Z,0
2023-04-27T00:37:59.109Z,0
2023-04-27T00:38:29.129Z,0
2023-04-27T00:38:59.134Z,0
2023-04-27T00:39:29.160Z,0
2023-04-27T00:39:59.129Z,0
2023-04-27T00:40:29.164Z,0
2023-04-27T00:40:59.156Z,0
2023-04-27T00:41:29.161Z,0
2023-04-27T00:41:59.168Z,0
2023-04-27T00:42:29.169Z,0
2023-04-27T00:42:59.186Z,0
2023-04-27T00:43:29.201Z,0
2023-04-27T00:43:59.194Z,0
2023-04-27T00:44:29.197Z,0
2023-04-27T00:44:59.215Z,0
2023-04-27T00:45:29.210Z,0
2023-04-27T00:45:59.237Z,0
2023-04-27T00:46:29.252Z,0
2023-04-27T00:46:59.233Z,0
2023-04-27T00:47:29.241Z,0
2023-04-27T00:47:59.265Z,0
2023-04-27T00:48:29.256Z,0
2023-04-27T00:48:59.253Z,0
2023-04-27T00:49:29.267Z,0
2023-04-27T00:49:59.272Z,0
2023-04-27T00:50:29.284Z,0
2023-04-27T00:51:00.034Z,0
2023-04-27T00:51:29.292Z,0
2023-04-27T00:51:59.297Z,0
2023-04-27T00:52:29.304Z,0
2023-04-27T00:52:59.318Z,0
2023-04-27T00:53:29.341Z,0
2023-04-27T00:53:59.328Z,0
2023-04-27T00:54:29.333Z,0
2023-04-27T00:54:59.351Z,0
2023-04-27T00:55:29.348Z,0
2023-04-27T00:55:59.353Z,0
2023-04-27T00:56:29.367Z,0
2023-04-27T00:56:59.360Z,0
2023-04-27T00:57:29.364Z,0
2023-04-27T00:57:59.375Z,0
2023-04-27T00:58:29.382Z,0
2023-04-27T00:58:59.389Z,0
2023-04-27T00:59:29.391Z,0
2023-04-27T00:59:59.407Z,0
2023-04-27T01:00:29.432Z,0
2023-04-27T01:00:59.433Z,0
2023-04-27T01:01:29.433Z,0
2023-04-27T01:01:59.431Z,0
2023-04-27T01:02:29.548Z,0
2023-04-27T01:05:34.239Z,0
2023-04-27T01:06:04.253Z,0
2023-04-27T01:06:34.213Z,0
2023-04-27T01:07:04.263Z,0
2023-04-27T01:07:34.221Z,0
2023-04-27T01:08:04.304Z,0
2023-04-27T01:08:34.237Z,0
2023-04-27T01:09:34.286Z,0
2023-04-27T01:10:28.466Z,0
2023-04-27T01:10:58.412Z,0
2023-04-27T01:11:28.431Z,0
2023-04-27T01:11:58.459Z,0
2023-04-27T01:12:28.457Z,0
2023-04-27T01:12:58.439Z,0
2023-04-27T01:13:28.447Z,0
2023-04-27T01:13:58.463Z,0
2023-04-27T01:14:28.463Z,0
2023-04-27T01:14:58.523Z,0
2023-04-27T01:15:42.562Z,0
2023-04-27T01:16:12.636Z,0
2023-04-27T01:16:42.558Z,0
2023-04-27T01:17:12.529Z,0
2023-04-27T01:17:42.555Z,0
2023-04-27T01:18:12.550Z,0
2023-04-27T01:18:42.552Z,0
2023-04-27T01:20:09.798Z,0
2023-04-27T01:20:39.540Z,0
2023-04-27T01:21:41.942Z,0
2023-04-27T01:22:11.903Z,0
2023-04-27T01:22:41.914Z,0
2023-04-27T01:23:11.918Z,0
2023-04-27T01:23:41.918Z,0
2023-04-27T01:24:23.751Z,0
2023-04-27T01:24:53.715Z,0
2023-04-27T01:25:23.715Z,0
2023-04-27T01:25:53.739Z,0
2023-04-27T01:26:23.726Z,0
2023-04-27T01:26:53.738Z,0
2023-04-27T01:27:23.784Z,0
2023-04-27T01:27:57.602Z,0
2023-04-27T01:28:27.577Z,0
2023-04-27T01:28:57.575Z,0
2023-04-27T01:29:27.584Z,0
2023-04-27T01:29:57.587Z,0
2023-04-27T01:30:27.717Z,0
2023-04-27T01:30:57.635Z,0
2023-04-27T01:31:34.243Z,0
2023-04-27T01:32:04.213Z,0
2023-04-27T01:32:34.197Z,0
2023-04-27T01:34:09.779Z,0
2023-04-27T01:34:39.528Z,0
2023-04-27T01:35:35.820Z,0
2023-04-27T01:36:35.638Z,0
2023-04-27T01:37:05.598Z,0
2023-04-27T01:37:35.609Z,0
2023-04-27T01:38:05.612Z,0
2023-04-27T01:39:06.598Z,0
2023-04-27T01:39:36.546Z,0
2023-04-27T01:40:06.585Z,0
2023-04-27T01:40:36.598Z,0
2023-04-27T01:41:06.572Z,0
2023-04-27T01:41:36.595Z,0
2023-04-27T01:42:06.596Z,0
2023-04-27T01:42:36.596Z,0
2023-04-27T01:43:06.612Z,0
2023-04-27T01:43:36.613Z,0
2023-04-27T01:44:06.639Z,0
2023-04-27T01:44:36.620Z,0
2023-04-27T01:45:06.623Z,0
2023-04-27T01:45:36.635Z,0
2023-04-27T01:46:06.642Z,0
2023-04-27T01:46:36.709Z,0
2023-04-27T01:47:06.663Z,0
2023-04-27T01:47:36.671Z,0
2023-04-27T01:48:06.685Z,0
2023-04-27T01:48:36.672Z,0
2023-04-27T01:48:57.807Z,0
2023-04-27T01:49:46.799Z,0
2023-04-27T01:50:16.578Z,0
2023-04-27T01:50:46.594Z,0
2023-04-27T01:51:16.629Z,0
2023-04-27T01:51:46.608Z,0
2023-04-27T01:52:16.605Z,0
2023-04-27T01:52:46.626Z,0
2023-04-27T01:53:16.629Z,0
2023-04-27T01:53:46.645Z,0
2023-04-27T01:54:16.630Z,0
2023-04-27T01:54:46.653Z,0
2023-04-27T01:55:17.553Z,0
2023-04-27T01:55:44.639Z,0
2023-04-27T01:56:14.618Z,0
2023-04-27T01:56:44.623Z,0
2023-04-27T01:57:44.651Z,0
2023-04-27T01:58:11.615Z,0
2023-04-27T01:58:41.588Z,0
2023-04-27T01:59:11.709Z,0
2023-04-27T01:59:41.609Z,0
2023-04-27T02:00:11.606Z,0
2023-04-27T02:00:41.624Z,0
2023-04-27T02:01:11.668Z,0
2023-04-27T02:01:41.658Z,0
2023-04-27T02:02:11.661Z,0
2023-04-27T02:02:41.767Z,0
2023-04-27T02:03:11.767Z,0
2023-04-27T02:03:41.738Z,0
2023-04-27T02:04:11.754Z,0
2023-04-27T02:04:41.723Z,0
2023-04-27T02:05:11.704Z,0
2023-04-27T02:05:41.734Z,0
2023-04-27T02:06:11.698Z,0
2023-04-27T02:06:41.714Z,0
2023-04-27T02:07:11.721Z,0
2023-04-27T02:07:41.714Z,0
2023-04-27T02:08:11.771Z,0
2023-04-27T02:08:41.743Z,0
2023-04-27T02:09:11.809Z,0
2023-04-27T02:09:41.737Z,0
2023-04-27T02:10:11.788Z,0
2023-04-27T02:10:41.790Z,0
2023-04-27T02:11:11.789Z,0
2023-04-27T02:11:36.521Z,0
2023-04-27T02:12:06.465Z,0
2023-04-27T02:12:36.475Z,0
2023-04-27T02:13:06.479Z,0
2023-04-27T02:13:36.481Z,0
2023-04-27T02:14:06.491Z,0
2023-04-27T02:14:36.496Z,0
2023-04-27T02:15:06.501Z,0
2023-04-27T02:15:36.505Z,0
2023-04-27T02:16:06.538Z,0
2023-04-27T02:16:36.595Z,0
2023-04-27T02:17:06.524Z,0
2023-04-27T02:17:36.537Z,0
2023-04-27T02:18:06.598Z,0
2023-04-27T02:18:36.547Z,0
2023-04-27T02:19:06.567Z,0
2023-04-27T02:19:36.565Z,0
2023-04-27T02:20:06.562Z,0
2023-04-27T02:20:36.576Z,0
2023-04-27T02:21:06.577Z,0
2023-04-27T02:21:36.584Z,0
2023-04-27T02:22:06.623Z,0
2023-04-27T02:22:36.597Z,0
2023-04-27T02:23:36.629Z,0
2023-04-27T02:24:06.617Z,0
2023-04-27T02:24:36.620Z,0
2023-04-27T02:25:06.634Z,0
2023-04-27T02:25:36.644Z,0
2023-04-27T02:26:06.647Z,0
2023-04-27T02:26:23.901Z,0
2023-04-27T02:26:53.894Z,0
2023-04-27T02:27:23.889Z,0
2023-04-27T02:27:53.871Z,0
2023-04-27T02:28:23.874Z,0
2023-04-27T02:28:53.892Z,0
2023-04-27T02:29:23.886Z,0
2023-04-27T02:29:53.903Z,0
2023-04-27T02:30:23.910Z,0
2023-04-27T02:30:53.910Z,0
2023-04-27T02:31:23.965Z,0
2023-04-27T02:33:07.484Z,0
2023-04-27T02:33:37.429Z,0
2023-04-27T02:34:07.425Z,0
2023-04-27T02:34:37.438Z,0
2023-04-27T02:35:07.424Z,0
2023-04-27T02:35:37.454Z,0
2023-04-27T02:36:07.454Z,0
2023-04-27T02:36:37.481Z,0
2023-04-27T02:37:07.469Z,0
2023-04-27T02:37:37.472Z,0
2023-04-27T02:38:07.469Z,0
2023-04-27T02:38:37.482Z,0
2023-04-27T02:39:07.483Z,0
2023-04-27T02:39:37.513Z,0
2023-04-27T02:40:07.509Z,0
2023-04-27T02:40:37.506Z,0
2023-04-27T02:41:07.516Z,0
2023-04-27T02:41:37.526Z,0
2023-04-27T02:42:14.646Z,0
2023-04-27T02:42:44.396Z,0
2023-04-27T02:43:44.398Z,0
2023-04-27T02:44:14.408Z,0
2023-04-27T02:44:44.412Z,0
2023-04-27T02:45:14.424Z,0
2023-04-27T02:47:32.172Z,0
2023-04-27T02:48:02.144Z,0
2023-04-27T02:48:32.112Z,0
2023-04-27T02:49:02.122Z,0
2023-04-27T02:49:32.130Z,0
2023-04-27T02:50:02.130Z,0
2023-04-27T02:50:32.138Z,0
2023-04-27T02:51:02.148Z,0
2023-04-27T02:51:32.154Z,0
2023-04-27T02:52:02.165Z,0
2023-04-27T02:52:32.166Z,0
2023-04-27T02:53:02.168Z,0
2023-04-27T02:53:32.190Z,0
2023-04-27T02:54:02.208Z,0
2023-04-27T02:54:32.180Z,0
2023-04-27T02:55:02.199Z,0
2023-04-27T02:55:32.219Z,0
2023-04-27T02:56:02.212Z,0
2023-04-27T02:56:32.215Z,0
2023-04-27T02:57:02.236Z,0
2023-04-27T02:57:32.252Z,0
2023-04-27T02:58:02.248Z,0
2023-04-27T02:58:32.240Z,0
2023-04-27T02:59:02.244Z,0
2023-04-27T02:59:32.255Z,0
2023-04-27T03:00:03.686Z,0
2023-04-27T03:00:32.262Z,0
2023-04-27T03:01:02.273Z,0
2023-04-27T03:01:32.333Z,0
2023-04-27T03:02:02.284Z,0
2023-04-27T03:02:32.384Z,0
2023-04-27T03:03:02.503Z,0
2023-04-27T03:04:03.373Z,0
2023-04-27T03:04:33.261Z,0
2023-04-27T03:05:33.236Z,0
2023-04-27T03:06:03.242Z,0
2023-04-27T03:06:33.244Z,0
2023-04-27T03:07:03.259Z,0
2023-04-27T03:07:33.264Z,0
2023-04-27T03:08:03.266Z,0
2023-04-27T03:08:33.282Z,0
2023-04-27T03:09:03.284Z,0
2023-04-27T03:09:33.291Z,0
2023-04-27T03:10:03.290Z,0
2023-04-27T03:10:33.306Z,0
2023-04-27T03:11:03.309Z,0
2023-04-27T03:11:33.311Z,0
2023-04-27T03:12:03.322Z,0
2023-04-27T03:12:33.336Z,0
2023-04-27T03:13:03.324Z,0
2023-04-27T03:13:33.339Z,0
2023-04-27T03:14:03.343Z,0
2023-04-27T03:14:33.350Z,0
2023-04-27T03:15:03.366Z,0
2023-04-27T03:15:33.359Z,0
2023-04-27T03:16:03.401Z,0
2023-04-27T03:16:33.425Z,0
2023-04-27T03:17:03.394Z,0
2023-04-27T03:17:33.407Z,0
2023-04-27T03:18:03.455Z,0
2023-04-27T03:18:33.399Z,0
2023-04-27T03:19:03.421Z,0
2023-04-27T03:19:33.414Z,0
2023-04-27T03:20:03.436Z,0
2023-04-27T03:20:33.426Z,0
2023-04-27T03:21:03.435Z,0
2023-04-27T03:21:33.450Z,0
2023-04-27T03:22:03.451Z,0
2023-04-27T03:22:33.454Z,0
2023-04-27T03:23:03.471Z,0
2023-04-27T03:23:33.493Z,0
2023-04-27T03:24:03.482Z,0
2023-04-27T03:24:33.472Z,0
2023-04-27T03:25:03.490Z,0
2023-04-27T03:25:33.493Z,0
2023-04-27T03:26:03.507Z,0
2023-04-27T03:26:33.501Z,0
2023-04-27T03:27:03.508Z,0
2023-04-27T03:27:33.512Z,0
2023-04-27T03:28:03.519Z,0
2023-04-27T03:28:33.531Z,0
2023-04-27T03:29:03.532Z,0
2023-04-27T03:29:33.541Z,0
2023-04-27T03:30:03.548Z,0
2023-04-27T03:30:33.547Z,0
2023-04-27T03:31:03.567Z,0
2023-04-27T03:31:33.587Z,0
2023-04-27T03:32:03.625Z,0
2023-04-27T03:32:33.587Z,0
2023-04-27T03:33:03.678Z,0
2023-04-27T03:33:33.591Z,0
2023-04-27T03:34:03.594Z,0
2023-04-27T03:34:33.597Z,0
2023-04-27T03:35:03.620Z,0
2023-04-27T03:35:33.610Z,0
2023-04-27T03:36:03.616Z,0
2023-04-27T03:36:33.624Z,0
2023-04-27T03:37:03.637Z,0
2023-04-27T03:37:33.643Z,0
2023-04-27T03:38:03.643Z,0
2023-04-27T03:38:33.654Z,0
2023-04-27T03:39:03.696Z,0
2023-04-27T03:39:33.666Z,0
2023-04-27T03:40:03.681Z,0
2023-04-27T03:40:33.682Z,0
2023-04-27T03:41:33.689Z,0
2023-04-27T03:42:03.701Z,0
2023-04-27T03:42:33.699Z,0
2023-04-27T03:43:03.715Z,0
2023-04-27T03:43:33.720Z,0
2023-04-27T03:44:03.725Z,0
2023-04-27T03:44:33.741Z,0
2023-04-27T03:45:03.732Z,0
2023-04-27T03:45:33.747Z,0
2023-04-27T03:46:03.780Z,0
2023-04-27T03:46:33.783Z,0
2023-04-27T03:47:03.761Z,0
2023-04-27T03:47:33.768Z,0
2023-04-27T03:48:03.807Z,0
2023-04-27T03:48:33.779Z,0
2023-04-27T03:49:03.792Z,0
2023-04-27T03:49:33.794Z,0
2023-04-27T03:50:03.813Z,0
2023-04-27T03:50:33.809Z,0
2023-04-27T03:51:03.810Z,0
2023-04-27T03:51:33.817Z,0
2023-04-27T03:52:03.835Z,0
2023-04-27T03:52:33.831Z,0
2023-04-27T03:53:03.840Z,0
2023-04-27T03:53:33.845Z,0
2023-04-27T03:54:03.842Z,0
2023-04-27T03:54:33.856Z,0
2023-04-27T03:55:03.859Z,0.41
2023-04-27T03:55:33.886Z,0.71
2023-04-27T03:56:03.876Z,0.75
2023-04-27T03:56:33.885Z,0.47
2023-04-27T03:57:03.891Z,0.84
2023-04-27T03:57:33.895Z,0.6
2023-04-27T03:57:36.735Z,1.03
2023-04-27T03:58:03.902Z,1.41
2023-04-27T03:58:19.728Z,0.78
2023-04-27T03:58:33.907Z,0.58
2023-04-27T03:58:41.752Z,2.51
2023-04-27T03:59:03.918Z,1.04
2023-04-27T03:59:33.920Z,1.12
2023-04-27T03:59:44.741Z,2.33
2023-04-27T04:00:03.924Z,2.38
2023-04-27T04:00:26.731Z,2.51
2023-04-27T04:00:33.941Z,1.14
2023-04-27T04:00:46.742Z,1.13
2023-04-27T04:01:03.952Z,1.49
2023-04-27T04:01:26.743Z,1.34
2023-04-27T04:01:33.946Z,1.29
2023-04-27T04:01:35.749Z,2.34
2023-04-27T04:01:54.770Z,1.34
2023-04-27T04:02:04.080Z,1.67
2023-04-27T04:02:33.817Z,4.28
2023-04-27T04:02:38.798Z,1.81
2023-04-27T04:02:54.836Z,2.82
2023-04-27T04:03:04.102Z,1.86
2023-04-27T04:03:34.077Z,2.3
2023-04-27T04:03:44.816Z,4.76
2023-04-27T04:04:00.939Z,4.46
2023-04-27T04:04:04.056Z,4.36
2023-04-27T04:04:06.831Z,2.3
2023-04-27T04:04:34.069Z,4.83
2023-04-27T04:05:03.792Z,3.24
2023-04-27T04:05:04.008Z,3.24
2023-04-27T04:05:11.772Z,4.57
2023-04-27T04:05:34.006Z,2.84
2023-04-27T04:05:42.760Z,2.65
2023-04-27T04:05:48.750Z,3.7
2023-04-27T04:06:04.011Z,2.9
2023-04-27T04:06:14.752Z,4.7
2023-04-27T04:06:34.018Z,2.8
2023-04-27T04:06:44.753Z,2.44
2023-04-27T04:06:50.756Z,3.45
2023-04-27T04:07:04.025Z,3.37
2023-04-27T04:07:34.036Z,4.88
2023-04-27T04:07:44.766Z,4.86
2023-04-27T04:08:04.049Z,2.81
2023-04-27T04:08:20.760Z,4.35
2023-04-27T04:08:34.044Z,3.86
2023-04-27T04:08:44.756Z,3.06
2023-04-27T04:08:55.756Z,2.39
2023-04-27T04:09:04.046Z,2.6
2023-04-27T04:09:15.970Z,2.5
2023-04-27T04:09:23.806Z,4.12
2023-04-27T04:09:34.068Z,4.16
2023-04-27T04:09:45.763Z,3.8
2023-04-27T04:09:57.770Z,3.91
2023-04-27T04:10:04.064Z,2.87
2023-04-27T04:10:17.759Z,2.92
2023-04-27T04:10:34.067Z,3.23
2023-04-27T04:11:00.773Z,4.69
2023-04-27T04:11:04.102Z,2.57
2023-04-27T04:11:18.755Z,3.82
2023-04-27T04:11:34.095Z,4.11
2023-04-27T04:12:04.095Z,3.91
2023-04-27T04:12:05.769Z,3.67
2023-04-27T04:12:23.761Z,0
2023-04-27T04:12:34.105Z,0
2023-04-27T04:13:04.112Z,3.46
2023-04-27T04:13:11.782Z,2.47
2023-04-27T04:13:24.761Z,4.93
2023-04-27T04:13:34.109Z,3.21
2023-04-27T04:13:42.766Z,4.78
2023-04-27T04:14:04.157Z,4
2023-04-27T04:14:12.762Z,3.88
2023-04-27T04:14:26.767Z,3.47
2023-04-27T04:14:34.127Z,4.6
2023-04-27T04:14:44.781Z,4.16
2023-04-27T04:15:09.786Z,3.08
2023-04-27T04:15:20.771Z,4.55
2023-04-27T04:15:34.173Z,4.13
2023-04-27T04:15:57.809Z,5.98
2023-04-27T04:16:21.825Z,3.41
2023-04-27T04:16:34.144Z,4.81
2023-04-27T04:16:42.767Z,2.7
2023-04-27T04:16:58.780Z,4.75
2023-04-27T04:17:25.858Z,4.98
2023-04-27T04:17:34.234Z,4.06
2023-04-27T04:18:00.793Z,3.43
2023-04-27T04:18:34.189Z,5.45
2023-04-27T04:18:51.780Z,3.57
2023-04-27T04:19:04.185Z,5.4
2023-04-27T04:19:08.796Z,3.72
2023-04-27T04:19:34.200Z,6.08
2023-04-27T04:20:04.197Z,5.93
2023-04-27T04:20:12.794Z,4.35
2023-04-27T04:20:34.202Z,6.4
2023-04-27T04:21:04.215Z,6.81
2023-04-27T04:21:34.225Z,7.07
2023-04-27T04:22:04.225Z,7.07
2023-04-27T04:22:34.234Z,7.36
2023-04-27T04:22:54.801Z,5.77
2023-04-27T04:23:04.237Z,6.89
2023-04-27T04:23:11.780Z,5.73
2023-04-27T04:23:34.243Z,6.77
2023-04-27T04:23:56.791Z,4.97
2023-04-27T04:24:04.255Z,6.36
2023-04-27T04:24:23.795Z,7.15
2023-04-27T04:24:34.257Z,6.24
2023-04-27T04:25:04.298Z,6.4
2023-04-27T04:25:23.789Z,6.09
2023-04-27T04:25:34.276Z,6.49
2023-04-27T04:26:17.793Z,4.42
2023-04-27T04:26:34.305Z,6.75
2023-04-27T04:27:49.776Z,6.53
2023-04-27T04:28:08.807Z,5.15
2023-04-27T04:28:14.808Z,6.39
2023-04-27T04:29:19.767Z,6.38
2023-04-27T04:29:32.802Z,5.13
2023-04-27T04:29:49.904Z,4.97
2023-04-27T04:30:19.941Z,4.84
2023-04-27T04:30:47.795Z,6.24
2023-04-27T04:30:53.820Z,7.3
2023-04-27T04:31:19.823Z,7.67
2023-04-27T04:31:20.825Z,5.13
2023-04-27T04:31:49.826Z,7.51
2023-04-27T04:31:59.796Z,6.44
2023-04-27T04:32:19.806Z,7.76
2023-04-27T04:32:40.833Z,4.95
2023-04-27T04:32:49.818Z,7.99
2023-04-27T04:33:08.807Z,5.9
2023-04-27T04:33:19.806Z,7.94
2023-04-27T04:33:46.811Z,6.35
2023-04-27T04:33:49.799Z,7.68
2023-04-27T04:33:52.800Z,7.66
2023-04-27T04:34:16.825Z,5.36
2023-04-27T04:34:19.813Z,7.95
2023-04-27T04:34:49.819Z,8.14
2023-04-27T04:35:01.801Z,6.28
2023-04-27T04:35:19.875Z,8.43
2023-04-27T04:35:49.843Z,8.26
2023-04-27T04:36:02.802Z,9.61
2023-04-27T04:36:49.857Z,9.76
2023-04-27T04:37:11.808Z,7.66
2023-04-27T04:37:23.806Z,10.22
2023-04-27T04:37:49.889Z,10.21
2023-04-27T04:38:19.871Z,10.83
2023-04-27T04:38:26.842Z,8.98
2023-04-27T04:38:49.888Z,11.81
2023-04-27T04:39:02.817Z,12.18
2023-04-27T04:39:19.878Z,12.69
2023-04-27T04:39:34.828Z,10.79
2023-04-27T04:39:49.892Z,12.86
2023-04-27T04:40:10.944Z,10.25
2023-04-27T04:40:19.910Z,15.69
2023-04-27T04:40:37.818Z,15.61
2023-04-27T04:40:49.967Z,16.48
2023-04-27T04:41:19.914Z,17.25
2023-04-27T04:41:44.827Z,18.04
2023-04-27T04:41:49.929Z,18.22
2023-04-27T04:42:19.920Z,19
2023-04-27T04:42:49.938Z,19.96
2023-04-27T04:42:56.822Z,20.11
2023-04-27T04:43:19.996Z,20.67
2023-04-27T04:43:49.944Z,21.24
2023-04-27T04:44:19.987Z,21.46
2023-04-27T04:44:49.968Z,21.48
2023-04-27T04:45:19.969Z,21.5
2023-04-27T04:45:37.833Z,19.45
2023-04-27T04:45:49.971Z,22.2
2023-04-27T04:46:20.209Z,21.64
2023-04-27T04:46:23.855Z,15.08
2023-04-27T04:46:50.028Z,21.43
2023-04-27T04:47:19.993Z,21.82
2023-04-27T04:47:50.050Z,21.91
2023-04-27T04:48:20.027Z,22.43
2023-04-27T04:48:44.847Z,23.08
2023-04-27T04:49:20.026Z,23.82
2023-04-27T04:49:34.837Z,24.36
2023-04-27T04:49:50.031Z,24.64
2023-04-27T04:50:20.051Z,23.82
2023-04-27T04:50:46.860Z,23.75
2023-04-27T04:50:50.039Z,25.41
2023-04-27T04:51:20.060Z,26.1
2023-04-27T04:51:50.058Z,26.36
2023-04-27T04:51:56.842Z,26.74
2023-04-27T04:52:20.058Z,15.53
2023-04-27T04:52:25.847Z,28.42
2023-04-27T04:52:50.071Z,27.5
2023-04-27T04:53:20.083Z,27.27
2023-04-27T04:53:49.845Z,27.05
2023-04-27T04:53:50.090Z,27.05
2023-04-27T04:54:20.096Z,27.17
2023-04-27T04:54:50.109Z,27.17
2023-04-27T04:55:20.105Z,27.66
2023-04-27T04:55:50.144Z,27.81
2023-04-27T04:56:20.113Z,28.2
2023-04-27T04:56:47.852Z,28.58
2023-04-27T04:57:20.131Z,29.23
2023-04-27T04:57:50.142Z,29.84
2023-04-27T04:58:02.857Z,30.44
2023-04-27T04:58:20.159Z,30.42
2023-04-27T04:58:50.144Z,31.61
2023-04-27T04:59:20.157Z,31.55
2023-04-27T04:59:50.171Z,31.79
2023-04-27T05:00:20.165Z,32.44
2023-04-27T05:00:44.854Z,32.97
2023-04-27T05:00:50.178Z,32.23
2023-04-27T05:01:20.212Z,32.86
2023-04-27T05:01:50.234Z,32.93
2023-04-27T05:02:20.239Z,32.29
2023-04-27T05:02:20.982Z,24.86
2023-04-27T05:02:50.335Z,33.41
2023-04-27T05:03:20.316Z,33.79
2023-04-27T05:03:50.305Z,34.65
2023-04-27T05:04:15.004Z,32.08
2023-04-27T05:04:20.507Z,35.46
2023-04-27T05:04:50.284Z,35.53
2023-04-27T05:05:20.241Z,35.53
2023-04-27T05:05:50.251Z,36.64
2023-04-27T05:06:20.261Z,35.69
2023-04-27T05:06:50.253Z,35.42
2023-04-27T05:07:23.440Z,35.71
2023-04-27T05:07:50.270Z,36.5
2023-04-27T05:07:56.866Z,37.32
2023-04-27T05:08:20.278Z,36.76
2023-04-27T05:08:46.870Z,35.39
2023-04-27T05:08:50.280Z,37.05
2023-04-27T05:09:11.989Z,36.39
2023-04-27T05:09:20.286Z,36.04
2023-04-27T05:09:50.302Z,39.62
2023-04-27T05:09:53.869Z,22.54
2023-04-27T05:10:20.302Z,38.26
2023-04-27T05:10:50.311Z,38.85
2023-04-27T05:11:20.330Z,38.87
2023-04-27T05:11:32.875Z,36.46
2023-04-27T05:11:50.327Z,40.51
2023-04-27T05:12:20.401Z,41.01
2023-04-27T05:12:50.346Z,41.54
2023-04-27T05:13:07.039Z,42.49
2023-04-27T05:13:20.342Z,42.25
2023-04-27T05:13:50.360Z,42.69
2023-04-27T05:14:20.358Z,43.54
2023-04-27T05:14:25.882Z,44.81
2023-04-27T05:14:50.362Z,45.38
2023-04-27T05:15:20.380Z,43.27
2023-04-27T05:15:50.413Z,44.45
2023-04-27T05:16:20.400Z,45.31
2023-04-27T05:16:50.387Z,44.88
2023-04-27T05:17:20.404Z,45.65
2023-04-27T05:17:35.910Z,46.16
2023-04-27T05:17:50.443Z,46.01
2023-04-27T05:18:20.409Z,46.64
2023-04-27T05:18:40.902Z,28.69
2023-04-27T05:18:50.415Z,47.54
2023-04-27T05:19:20.446Z,46.7
2023-04-27T05:19:50.449Z,46.83
2023-04-27T05:20:20.764Z,47.61
2023-04-27T05:20:50.446Z,45.16
2023-04-27T05:20:52.893Z,40.12
2023-04-27T05:21:20.458Z,48.57
2023-04-27T05:21:50.466Z,48.85
2023-04-27T05:22:20.462Z,50.54
2023-04-27T05:22:44.896Z,44.85
2023-04-27T05:22:50.472Z,51.58
2023-04-27T05:23:20.482Z,51.77
2023-04-27T05:23:50.491Z,52.62
2023-04-27T05:24:20.510Z,53.54
2023-04-27T05:24:22.906Z,31.34
2023-04-27T05:24:50.495Z,37.94
2023-04-27T05:24:53.902Z,33.78
2023-04-27T05:25:09.927Z,7.48
2023-04-27T05:25:25.904Z,56.83
2023-04-27T05:25:50.508Z,56.25
2023-04-27T05:26:32.043Z,31.94
2023-04-27T05:26:50.530Z,63.01
2023-04-27T05:27:00.242Z,37.01
2023-04-27T05:27:10.907Z,36.63
2023-04-27T05:27:32.918Z,60.02
2023-04-27T05:27:50.540Z,40.21
2023-04-27T05:28:02.902Z,34.39
2023-04-27T05:28:37.928Z,61.46
2023-04-27T05:28:50.556Z,63.5
2023-04-27T05:29:20.565Z,63.59
2023-04-27T05:29:43.911Z,46.23
2023-04-27T05:29:50.557Z,64.76
2023-04-27T05:30:20.579Z,64.15
2023-04-27T05:31:22.275Z,65.13
2023-04-27T05:31:52.268Z,65.16
2023-04-27T05:32:22.289Z,65.27
2023-04-27T05:32:52.242Z,65.36
2023-04-27T05:33:52.252Z,64.88
2023-04-27T05:34:22.249Z,65.96
2023-04-27T05:34:52.265Z,66.89
2023-04-27T05:35:22.273Z,65.88
2023-04-27T05:35:52.280Z,66.72
2023-04-27T05:35:59.923Z,68.19
2023-04-27T05:36:22.285Z,58.16
2023-04-27T05:36:52.326Z,66.72
2023-04-27T05:39:08.286Z,69.41
2023-04-27T05:39:38.073Z,70.64
2023-04-27T05:39:55.935Z,72.03
2023-04-27T05:40:38.074Z,73.02
2023-04-27T05:41:08.083Z,73.28
2023-04-27T05:41:25.936Z,75.95
2023-04-27T05:41:38.092Z,75.45
2023-04-27T05:42:08.091Z,76.39
2023-04-27T05:42:38.102Z,76.92
2023-04-27T05:43:08.124Z,77.48
2023-04-27T05:43:38.121Z,78.31
2023-04-27T05:43:46.940Z,80.16
2023-04-27T05:44:08.133Z,79.64
2023-04-27T05:44:22.940Z,102.24
2023-04-27T05:44:38.120Z,93.3
2023-04-27T05:44:47.939Z,87.54
2023-04-27T05:45:38.168Z,81.68
2023-04-27T05:45:55.994Z,87.82
2023-04-27T05:46:20.007Z,90.7
2023-04-27T05:46:38.948Z,81.73
2023-04-27T05:47:08.170Z,83.72
2023-04-27T05:47:38.195Z,82.88
2023-04-27T05:47:46.974Z,86.36
2023-04-27T05:48:08.248Z,103.91
2023-04-27T05:48:38.185Z,84.22
2023-04-27T05:48:42.949Z,70.04
2023-04-27T05:48:47.948Z,96.08
2023-04-27T05:49:08.215Z,161.68
2023-04-27T05:49:09.007Z,163.23
2023-04-27T05:49:38.200Z,92.01
2023-04-27T05:49:44.965Z,62.18
2023-04-27T05:49:50.953Z,81.07
2023-04-27T05:50:10.949Z,81.14
2023-04-27T05:50:32.955Z,86.03
2023-04-27T05:50:38.216Z,84.45
2023-04-27T05:50:55.957Z,91.28
2023-04-27T05:51:13.960Z,94.13
2023-04-27T05:51:38.232Z,97.95
2023-04-27T05:52:08.237Z,97.16
2023-04-27T05:52:38.399Z,97.69
2023-04-27T05:52:56.961Z,104.44
2023-04-27T05:53:08.245Z,119.59
2023-04-27T05:53:38.252Z,100.37
2023-04-27T05:53:52.967Z,108.88
2023-04-27T05:54:02.963Z,115.64
2023-04-27T05:54:08.254Z,131.67
2023-04-27T05:54:13.958Z,145.76
2023-04-27T05:54:38.272Z,108.8
2023-04-27T05:55:08.295Z,101.59
2023-04-27T05:55:38.285Z,107.39
2023-04-27T05:56:01.969Z,107.17
2023-04-27T05:56:31.949Z,109.47
2023-04-27T05:56:46.976Z,112.12
2023-04-27T05:57:31.960Z,112.32
2023-04-27T05:58:07.501Z,118.07
2023-04-27T05:58:09.626Z,118.08
2023-04-27T05:58:16.965Z,125.33
2023-04-27T05:58:31.961Z,161.32
2023-04-27T05:58:34.979Z,179.75
2023-04-27T05:59:02.748Z,136.98
2023-04-27T05:59:11.280Z,147.08
2023-04-27T05:59:19.973Z,155.45
2023-04-27T05:59:31.977Z,143.44
2023-04-27T05:59:37.974Z,138.39
2023-04-27T06:00:01.979Z,120.06
2023-04-27T06:00:11.972Z,163.43
2023-04-27T06:00:23.010Z,153.78
2023-04-27T06:00:32.011Z,143.37
2023-04-27T06:01:01.993Z,152.89
2023-04-27T06:01:32.016Z,159.77
2023-04-27T06:01:35.970Z,161.35
2023-04-27T06:02:02.030Z,161.47
2023-04-27T06:02:18.033Z,170.08
2023-04-27T06:02:32.123Z,166.43
2023-04-27T06:03:02.115Z,163.63
2023-04-27T06:03:29.178Z,179.82
2023-04-27T06:03:32.195Z,193.54
2023-04-27T06:04:02.244Z,171.87
2023-04-27T06:04:32.087Z,153.63
2023-04-27T06:04:50.038Z,151.78
2023-04-27T06:05:35.237Z,139.68
2023-04-27T06:05:56.819Z,166.16
2023-04-27T06:05:59.341Z,171.84
2023-04-27T06:06:37.991Z,159.58
2023-04-27T06:06:59.980Z,143.02
2023-04-27T06:07:11.987Z,136.12
2023-04-27T06:07:44.990Z,147.52
2023-04-27T06:08:25.009Z,138
2023-04-27T06:08:31.994Z,132.61
2023-04-27T06:08:55.020Z,126.52
2023-04-27T06:09:06.003Z,126.05
2023-04-27T06:09:25.051Z,124.11